Time;durP1;ratioP1;P1;durP2;ratioP2;P2;SDS_P1;SDS_P2;PMS_P1;PMS_P2;Temp;Humidity;BMP_temperature;BMP_pressure;BME280_temperature;BME280_humidity;BME280_pressure;Samples;Min_cycle;Max_cycle;Signal;HPM_P1;HPM_P2
2022/06/14 00:01:13;;;;;;;7.47;3.72;;;10.70;99.90;;;;;;5073183;28;20056;-69
2022/06/14 00:03:42;;;;;;;7.47;3.80;;;10.80;99.90;;;;;;5074431;28;20048;-70
2022/06/14 00:06:12;;;;;;;27.00;4.72;;;10.90;99.90;;;;;;5057322;28;20052;-69
2022/06/14 00:08:39;;;;;;;10.07;3.90;;;10.90;99.90;;;;;;5072725;28;20056;-70
2022/06/14 00:11:10;;;;;;;9.90;3.72;;;11.00;99.90;;;;;;5037145;28;20098;-69
2022/06/14 00:13:37;;;;;;;18.05;4.38;;;11.10;99.90;;;;;;5055333;28;20442;-69
2022/06/14 00:16:05;;;;;;;13.20;3.88;;;11.10;99.90;;;;;;5036539;28;20057;-68
2022/06/14 00:18:32;;;;;;;13.23;4.82;;;11.10;99.90;;;;;;5053691;28;20106;-69
2022/06/14 00:20:59;;;;;;;16.85;4.63;;;11.20;99.90;;;;;;5054713;28;20053;-69
2022/06/14 00:23:26;;;;;;;11.90;4.30;;;11.20;99.90;;;;;;5054279;28;20048;-69
2022/06/14 00:25:55;;;;;;;10.25;4.22;;;11.30;99.90;;;;;;5037092;28;20052;-69
2022/06/14 00:28:27;;;;;;;10.45;4.85;;;11.30;99.90;;;;;;5036383;28;20049;-68
2022/06/14 00:30:57;;;;;;;15.85;5.07;;;11.30;99.90;;;;;;5037050;28;20496;-69
2022/06/14 00:33:24;;;;;;;11.15;4.25;;;11.40;99.90;;;;;;5036852;28;20049;-68
2022/06/14 00:35:59;;;;;;;11.95;3.97;;;11.40;99.90;;;;;;5053697;28;20049;-69
2022/06/14 00:38:26;;;;;;;13.90;4.18;;;11.40;99.90;;;;;;5052834;28;20074;-70
2022/06/14 00:40:55;;;;;;;10.57;4.53;;;11.40;99.90;;;;;;5056667;28;20056;-70
2022/06/14 00:43:25;;;;;;;9.73;3.92;;;11.40;99.90;;;;;;5073623;28;20052;-70
2022/06/14 00:46:23;;;;;;;18.35;4.28;;;11.40;99.90;;;;;;5056595;28;20048;-71
2022/06/14 00:48:59;;;;;;;11.90;3.95;;;11.40;99.90;;;;;;5074721;28;20049;-70
2022/06/14 00:51:29;;;;;;;8.07;4.30;;;11.40;99.90;;;;;;5053510;28;20045;-70
2022/06/14 00:54:00;;;;;;;9.50;3.73;;;11.40;99.90;;;;;;5036144;28;20055;-71
2022/06/14 00:56:34;;;;;;;16.95;4.38;;;11.40;99.90;;;;;;5035821;28;20371;-71
2022/06/14 00:59:11;;;;;;;9.00;3.90;;;11.40;99.90;;;;;;5054548;28;20052;-69
2022/06/14 01:01:42;;;;;;;10.18;4.35;;;11.40;99.90;;;;;;5053984;28;20053;-70
2022/06/14 01:04:15;;;;;;;10.02;3.75;;;11.40;99.90;;;;;;5047432;28;20053;-69
2022/06/14 01:06:51;;;;;;;11.25;4.38;;;11.30;99.90;;;;;;5074060;28;20048;-69
2022/06/14 01:09:22;;;;;;;10.88;3.50;;;11.30;99.90;;;;;;5056474;28;20064;-69
2022/06/14 01:11:50;;;;;;;;;;;11.20;99.90;;;;;;5055620;28;20056;-69
2022/06/14 01:14:23;;;;;;;11.20;3.92;;;11.20;99.90;;;;;;5071917;28;19974;-70
2022/06/14 01:16:51;;;;;;;9.20;3.58;;;11.10;99.90;;;;;;5056041;28;20052;-70
2022/06/14 01:19:22;;;;;;;10.77;3.90;;;11.00;99.90;;;;;;5073372;28;20075;-70
2022/06/14 01:22:14;;;;;;;8.25;3.78;;;11.00;99.90;;;;;;5073841;28;20060;-69
2022/06/14 01:24:43;;;;;;;8.70;3.42;;;10.90;99.90;;;;;;5072795;28;20102;-69
2022/06/14 01:27:13;;;;;;;12.13;4.68;;;10.80;99.90;;;;;;5056049;28;20092;-70
2022/06/14 01:29:45;;;;;;;8.85;4.05;;;10.80;99.90;;;;;;5063313;28;20048;-69
2022/06/14 01:32:15;;;;;;;11.98;3.58;;;10.70;99.90;;;;;;5034791;28;20106;-69
2022/06/14 01:34:46;;;;;;;9.00;4.67;;;10.70;99.90;;;;;;5035570;28;20404;-69
2022/06/14 01:37:15;;;;;;;10.55;3.88;;;10.70;99.90;;;;;;5035769;28;20485;-68
2022/06/14 01:39:42;;;;;;;10.48;4.28;;;10.60;99.90;;;;;;5035099;28;20118;-70
2022/06/14 01:42:16;;;;;;;9.68;4.10;;;10.60;99.90;;;;;;5053148;28;20440;-69
2022/06/14 01:44:51;;;;;;;11.88;4.50;;;10.50;99.90;;;;;;5035503;28;20389;-69
2022/06/14 01:47:26;;;;;;;9.23;4.07;;;10.50;99.90;;;;;;5034937;28;20102;-69
2022/06/14 01:52:59;;;;;;;13.00;4.53;;;10.40;99.90;;;;;;5066762;28;20048;-69
2022/06/14 01:55:34;;;;;;;11.52;3.85;;;10.40;99.90;;;;;;5073067;28;20477;-70
2022/06/14 01:58:10;;;;;;;15.52;4.93;;;10.30;99.90;;;;;;5041469;28;20045;-69
2022/06/14 02:00:43;;;;;;;12.73;4.22;;;10.30;99.90;;;;;;5052295;28;20091;-70
2022/06/14 02:06:09;;;;;;;8.52;3.83;;;10.20;99.90;;;;;;5035273;28;20400;-69
2022/06/14 02:08:45;;;;;;;9.48;4.30;;;10.20;99.90;;;;;;5052219;28;20130;-70
2022/06/14 02:11:16;;;;;;;8.98;4.03;;;10.20;99.90;;;;;;5035057;28;20099;-70
2022/06/14 02:13:47;;;;;;;13.23;4.78;;;10.10;99.90;;;;;;5052684;28;20045;-69
2022/06/14 02:16:20;;;;;;;11.18;4.82;;;10.10;99.90;;;;;;5035252;28;20235;-70
2022/06/14 02:18:51;;;;;;;11.40;4.80;;;10.10;99.90;;;;;;5035233;28;20045;-69
2022/06/14 02:21:22;;;;;;;12.82;4.15;;;10.10;99.90;;;;;;5034403;28;20045;-69
2022/06/14 02:23:55;;;;;;;11.35;4.50;;;10.10;99.90;;;;;;5052835;28;20049;-69
2022/06/14 02:26:26;;;;;;;10.55;4.10;;;10.00;99.90;;;;;;5036336;28;20441;-70
2022/06/14 02:28:58;;;;;;;12.07;4.72;;;10.00;99.90;;;;;;5034233;28;20107;-70
2022/06/14 02:31:31;;;;;;;15.05;5.00;;;9.90;99.90;;;;;;5052748;28;20048;-69
2022/06/14 02:34:08;;;;;;;14.63;4.80;;;9.90;99.90;;;;;;5034701;28;20049;-69
2022/06/14 02:36:41;;;;;;;14.55;4.88;;;9.90;99.90;;;;;;5038510;28;20052;-69
2022/06/14 02:39:14;;;;;;;15.45;4.47;;;9.80;99.90;;;;;;5055024;28;20121;-70
2022/06/14 02:41:45;;;;;;;11.45;4.65;;;9.80;99.90;;;;;;5056545;28;20117;-70
2022/06/14 02:44:13;;;;;;;;;;;9.80;99.90;;;;;;5058264;28;20071;-69
2022/06/14 02:46:44;;;;;;;9.43;4.43;;;9.70;99.90;;;;;;5059199;28;19928;-69
2022/06/14 02:49:17;;;;;;;10.43;4.63;;;9.70;99.90;;;;;;5075971;28;20097;-69
2022/06/14 02:51:50;;;;;;;13.82;4.90;;;9.70;99.90;;;;;;5076808;28;20080;-70
2022/06/14 02:54:23;;;;;;;14.95;4.78;;;9.70;99.90;;;;;;5058540;28;20045;-69
2022/06/14 02:56:55;;;;;;;10.70;4.47;;;9.70;99.90;;;;;;5055691;28;20567;-69
2022/06/14 02:59:28;;;;;;;14.35;5.25;;;9.60;99.90;;;;;;5038744;28;20072;-69
2022/06/14 03:02:00;;;;;;;11.55;4.68;;;9.60;99.90;;;;;;5038688;28;20103;-69
2022/06/14 03:04:32;;;;;;;11.27;4.88;;;9.60;99.90;;;;;;5055395;28;20045;-69
2022/06/14 03:07:05;;;;;;;10.65;4.78;;;9.60;99.90;;;;;;5038200;28;20238;-68
2022/06/14 03:09:37;;;;;;;14.65;5.47;;;9.60;99.90;;;;;;5058093;28;20048;-68
2022/06/14 03:12:15;;;;;;;12.43;5.13;;;9.60;99.90;;;;;;5057456;28;20514;-69
2022/06/14 03:14:53;;;;;;;10.20;4.50;;;9.60;99.90;;;;;;5058096;28;20075;-69
2022/06/14 03:17:30;;;;;;;12.25;5.00;;;9.70;99.90;;;;;;5057193;28;20060;-69
2022/06/14 03:20:05;;;;;;;15.02;5.45;;;9.70;99.90;;;;;;5058140;28;20057;-70
2022/06/14 03:22:43;;;;;;;12.80;4.78;;;9.70;99.90;;;;;;5038367;28;20468;-70
2022/06/14 03:25:21;;;;;;;12.02;5.18;;;9.70;99.90;;;;;;5037462;28;20393;-70
2022/06/14 03:27:54;;;;;;;14.30;4.68;;;9.70;99.90;;;;;;5038332;28;20110;-70
2022/06/14 03:30:25;;;;;;;8.75;4.90;;;9.70;99.90;;;;;;5038351;28;20049;-70
2022/06/14 03:32:59;;;;;;;13.57;5.05;;;9.80;99.90;;;;;;5037082;28;20056;-69
2022/06/14 03:35:30;;;;;;;12.98;4.70;;;9.80;99.90;;;;;;5037686;28;20083;-69
2022/06/14 03:38:02;;;;;;;11.38;4.70;;;9.80;99.90;;;;;;5073527;28;20454;-69
2022/06/14 03:40:30;;;;;;;9.13;4.93;;;9.90;99.90;;;;;;5075075;28;20143;-70
2022/06/14 03:42:57;;;;;;;10.25;4.40;;;9.80;99.90;;;;;;5057356;28;20132;-70
2022/06/14 03:45:32;;;;;;;12.93;4.50;;;9.90;99.90;;;;;;5057045;28;20053;-70
2022/06/14 03:47:59;;;;;;;10.25;4.72;;;9.90;99.90;;;;;;5046365;28;20067;-70
2022/06/14 03:50:31;;;;;;;10.68;5.00;;;10.00;99.90;;;;;;5072635;28;20060;-70
2022/06/14 03:53:10;;;;;;;12.75;4.90;;;10.10;99.90;;;;;;5073380;28;20070;-69
2022/06/14 03:56:11;;;;;;;14.07;4.75;;;10.30;99.90;;;;;;5074040;28;20423;-69
2022/06/14 03:58:52;;;;;;;7.53;3.60;;;10.50;99.90;;;;;;5052174;28;20785;-70
2022/06/14 04:01:21;;;;;;;13.18;4.30;;;11.00;99.90;;;;;;5072103;28;20078;-69
2022/06/14 04:04:06;;;;;;;11.10;4.90;;;11.20;99.90;;;;;;5053875;28;20052;-70
2022/06/14 04:06:44;;;;;;;9.23;4.43;;;11.00;99.90;;;;;;5070901;28;20080;-68
2022/06/14 04:09:20;;;;;;;10.57;4.57;;;10.80;99.90;;;;;;5055154;28;20059;-69
2022/06/14 04:11:57;;;;;;;13.52;3.97;;;11.10;99.90;;;;;;5072906;28;20074;-70
2022/06/14 04:14:39;;;;;;;9.70;4.63;;;11.10;99.90;;;;;;5054265;28;20454;-70
2022/06/14 04:17:18;;;;;;;12.30;5.13;;;11.20;99.90;;;;;;5071258;28;20052;-69
2022/06/14 04:19:56;;;;;;;6.93;3.28;;;11.40;99.90;;;;;;5055013;28;20094;-70
2022/06/14 04:22:29;;;;;;;10.50;3.85;;;11.90;99.90;;;;;;5072047;28;20044;-70
2022/06/14 04:25:00;;;;;;;11.18;5.05;;;12.00;99.90;;;;;;5072708;28;20447;-70
2022/06/14 04:27:36;;;;;;;11.40;4.28;;;11.90;99.90;;;;;;5054171;28;20065;-69
2022/06/14 04:30:09;;;;;;;8.50;4.10;;;11.80;99.90;;;;;;5055664;28;20155;-69
2022/06/14 04:32:44;;;;;;;12.65;5.13;;;11.80;99.90;;;;;;5054023;28;20048;-68
2022/06/14 04:35:17;;;;;;;9.88;4.25;;;12.00;99.90;;;;;;5071458;28;20500;-70
2022/06/14 04:37:47;;;;;;;10.80;4.82;;;12.10;99.90;;;;;;5072501;28;20098;-70
2022/06/14 04:40:17;;;;;;;;;;;12.00;99.90;;;;;;5073190;28;20048;-71
2022/06/14 04:42:55;;;;;;;24.52;6.00;;;11.80;99.90;;;;;;5071926;28;19973;-72
2022/06/14 04:45:26;;;;;;;11.13;4.70;;;11.80;99.90;;;;;;5051634;28;20404;-70
2022/06/14 04:47:59;;;;;;;9.60;4.28;;;11.80;99.90;;;;;;5051464;28;20479;-71
2022/06/14 04:50:32;;;;;;;13.88;5.47;;;11.80;99.90;;;;;;5071969;28;20106;-71
2022/06/14 04:53:05;;;;;;;11.70;4.20;;;11.80;99.90;;;;;;5052647;28;20059;-71
2022/06/14 04:55:37;;;;;;;10.57;4.53;;;11.80;99.90;;;;;;5050326;28;20048;-70
2022/06/14 04:58:12;;;;;;;18.83;5.55;;;11.90;99.90;;;;;;5072442;28;20102;-69
2022/06/14 05:00:43;;;;;;;10.80;4.50;;;12.00;99.90;;;;;;5046051;28;20052;-71
2022/06/14 05:03:18;;;;;;;18.35;5.13;;;12.00;99.90;;;;;;5054183;28;20123;-71
2022/06/14 05:05:49;;;;;;;11.57;4.32;;;12.10;99.90;;;;;;5072300;28;20094;-71
2022/06/14 05:08:23;;;;;;;8.45;4.20;;;12.10;99.90;;;;;;5073002;28;20491;-69
2022/06/14 05:10:55;;;;;;;8.57;3.38;;;12.20;99.90;;;;;;5053831;28;20085;-71
2022/06/14 05:13:28;;;;;;;10.93;4.90;;;12.20;99.90;;;;;;5071164;28;20049;-70
2022/06/14 05:15:59;;;;;;;11.52;3.80;;;12.20;99.90;;;;;;5053253;28;20577;-70
2022/06/14 05:18:31;;;;;;;12.55;4.32;;;12.30;99.90;;;;;;5053787;28;20106;-70
2022/06/14 05:21:04;;;;;;;11.23;4.40;;;12.40;99.90;;;;;;5053304;28;20145;-71
2022/06/14 05:23:36;;;;;;;7.97;4.30;;;12.40;99.90;;;;;;5054325;28;20052;-71
2022/06/14 05:26:17;;;;;;;10.63;4.05;;;12.50;99.90;;;;;;5070955;28;20097;-71
2022/06/14 05:28:55;;;;;;;12.07;4.45;;;12.60;99.90;;;;;;5053860;28;20094;-69
2022/06/14 05:31:29;;;;;;;6.68;3.65;;;12.60;99.90;;;;;;5051618;28;20044;-70
2022/06/14 05:34:04;;;;;;;13.02;4.68;;;12.70;99.90;;;;;;5071895;28;20053;-70
2022/06/14 05:36:36;;;;;;;8.25;3.75;;;12.80;99.90;;;;;;5071630;28;20048;-70
2022/06/14 05:39:09;;;;;;;7.80;3.50;;;12.80;99.90;;;;;;5054211;28;20404;-70
2022/06/14 05:41:41;;;;;;;10.80;4.03;;;12.90;99.90;;;;;;5049976;28;20527;-70
2022/06/14 05:44:12;;;;;;;6.88;3.80;;;13.00;99.90;;;;;;5033968;28;20118;-70
2022/06/14 05:46:43;;;;;;;9.18;4.38;;;13.00;99.90;;;;;;5052683;28;20053;-70
2022/06/14 05:49:15;;;;;;;10.10;3.97;;;13.10;99.90;;;;;;5035667;28;20492;-70
2022/06/14 05:51:48;;;;;;;16.10;4.90;;;13.20;99.90;;;;;;5035566;28;20080;-69
2022/06/14 05:54:23;;;;;;;6.32;3.65;;;13.30;99.90;;;;;;5035205;28;20448;-71
2022/06/14 05:56:56;;;;;;;11.13;4.78;;;13.30;99.90;;;;;;5035595;28;20419;-70
2022/06/14 05:59:32;;;;;;;7.47;3.90;;;13.40;99.90;;;;;;5052508;28;20082;-70
2022/06/14 06:02:04;;;;;;;9.73;4.18;;;13.40;99.90;;;;;;5036005;28;20091;-70
2022/06/14 06:04:38;;;;;;;11.27;4.07;;;13.50;99.90;;;;;;5035588;28;20053;-70
2022/06/14 06:07:10;;;;;;;10.95;3.97;;;13.70;99.90;;;;;;5042345;28;20424;-70
2022/06/14 06:09:42;;;;;;;10.27;4.20;;;13.90;99.90;;;;;;5042428;28;20049;-72
2022/06/14 06:12:13;;;;;;;6.78;3.55;;;14.10;99.90;;;;;;5071295;28;20492;-72
2022/06/14 06:14:46;;;;;;;8.55;4.50;;;14.50;99.90;;;;;;5070440;28;20052;-72
2022/06/14 06:17:17;;;;;;;9.20;3.90;;;14.90;99.90;;;;;;5071355;28;20142;-72
2022/06/14 06:19:52;;;;;;;11.02;3.33;;;15.30;99.90;;;;;;5053333;28;20049;-72
2022/06/14 06:22:24;;;;;;;7.57;3.40;;;15.60;99.90;;;;;;5070634;28;20051;-71
2022/06/14 06:24:56;;;;;;;7.82;3.25;;;15.90;99.90;;;;;;5040809;28;20192;-71
2022/06/14 06:27:27;;;;;;;6.20;2.40;;;16.30;99.90;;;;;;5067789;28;20052;-71
2022/06/14 06:30:00;;;;;;;9.30;2.80;;;16.70;99.90;;;;;;5068195;28;20106;-71
2022/06/14 06:32:31;;;;;;;8.35;2.85;;;17.00;99.90;;;;;;5033631;28;20056;-72
2022/06/14 06:34:59;;;;;;;11.68;2.40;;;17.30;99.90;;;;;;5052428;28;20059;-71
2022/06/14 06:37:30;;;;;;;9.40;2.95;;;17.50;99.90;;;;;;5039377;28;20048;-72
2022/06/14 06:40:00;;;;;;;;;;;17.60;99.90;;;;;;5053060;28;20052;-70
2022/06/14 06:42:32;;;;;;;6.90;3.00;;;17.70;99.90;;;;;;5048443;28;19995;-72
2022/06/14 06:45:04;;;;;;;7.13;2.70;;;17.90;99.90;;;;;;5045547;28;20057;-72
2022/06/14 06:47:34;;;;;;;6.40;2.63;;;18.10;99.90;;;;;;5054194;28;20122;-71
2022/06/14 06:50:10;;;;;;;5.65;2.70;;;18.10;99.90;;;;;;5054161;28;20088;-71
2022/06/14 06:52:46;;;;;;;4.15;2.15;;;18.20;99.90;;;;;;5048766;28;20044;-71
2022/06/14 06:55:15;;;;;;;10.30;2.75;;;18.40;99.90;;;;;;5065343;28;20106;-71
2022/06/14 06:57:46;;;;;;;7.82;2.40;;;18.70;99.90;;;;;;5047553;28;20423;-72
2022/06/14 07:00:19;;;;;;;7.22;2.13;;;18.90;99.90;;;;;;5071283;28;20110;-72
2022/06/14 07:02:49;;;;;;;5.38;2.22;;;19.20;99.90;;;;;;5048066;28;20414;-72
2022/06/14 07:05:18;;;;;;;9.15;2.90;;;19.50;99.90;;;;;;5051528;28;20119;-71
2022/06/14 07:07:54;;;;;;;8.30;2.35;;;19.90;99.90;;;;;;5043671;28;20132;-73
2022/06/14 07:10:34;;;;;;;7.68;2.20;;;20.20;99.90;;;;;;5049015;28;20044;-72
2022/06/14 07:13:04;;;;;;;8.15;2.30;;;20.30;99.90;;;;;;5071803;28;20527;-72
2022/06/14 07:15:41;;;;;;;18.63;3.10;;;20.50;99.90;;;;;;5050737;28;20041;-72
2022/06/14 07:18:17;;;;;;;9.63;2.35;;;20.80;99.90;;;;;;5070146;28;20441;-72
2022/06/14 07:20:50;;;;;;;5.78;2.10;;;21.20;99.90;;;;;;5070675;28;20123;-72
2022/06/14 07:23:23;;;;;;;11.40;2.10;;;21.50;99.90;;;;;;5036687;28;20076;-71
2022/06/14 07:26:00;;;;;;;9.10;2.05;;;21.80;99.90;;;;;;5052642;28;20066;-72
2022/06/14 07:28:35;;;;;;;5.25;1.80;;;22.00;98.10;;;;;;5074213;28;20569;-72
2022/06/14 07:31:06;;;;;;;8.60;2.25;;;22.20;97.10;;;;;;5051645;28;20411;-71
2022/06/14 07:33:35;;;;;;;7.13;2.00;;;22.10;97.40;;;;;;5056170;28;20102;-72
2022/06/14 07:36:11;;;;;;;4.28;1.70;;;21.80;96.20;;;;;;5072445;28;20044;-71
2022/06/14 07:38:41;;;;;;;3.67;1.65;;;21.90;95.00;;;;;;5073765;28;20048;-72
2022/06/14 07:41:14;;;;;;;;;;;22.10;96.00;;;;;;5056941;28;20044;-71
2022/06/14 07:43:48;;;;;;;4.55;2.20;;;22.40;93.20;;;;;;5067813;28;19927;-73
2022/06/14 07:46:23;;;;;;;6.10;1.50;;;22.20;94.50;;;;;;5055025;28;20049;-72
2022/06/14 07:48:56;;;;;;;5.65;1.80;;;22.30;94.40;;;;;;5056777;28;20055;-71
2022/06/14 07:51:29;;;;;;;6.00;1.40;;;22.40;93.00;;;;;;5073971;28;20098;-73
2022/06/14 07:54:01;;;;;;;5.63;1.85;;;22.70;93.90;;;;;;5070317;28;20056;-71
2022/06/14 07:56:34;;;;;;;3.88;1.45;;;23.00;92.80;;;;;;5069651;28;20041;-72
2022/06/14 07:59:06;;;;;;;5.78;1.90;;;23.20;91.60;;;;;;5068049;28;20124;-71
2022/06/14 08:01:39;;;;;;;4.57;1.77;;;23.50;91.10;;;;;;5048176;28;20098;-71
2022/06/14 08:04:13;;;;;;;3.25;1.10;;;23.80;89.50;;;;;;5069078;28;20473;-72
2022/06/14 08:06:46;;;;;;;9.40;2.53;;;24.10;88.80;;;;;;5062951;28;20075;-72
2022/06/14 08:09:18;;;;;;;6.60;2.00;;;24.50;88.80;;;;;;5058807;28;20101;-72
2022/06/14 08:11:50;;;;;;;14.10;1.85;;;24.50;86.90;;;;;;5050969;28;20056;-72
2022/06/14 08:14:24;;;;;;;5.35;1.70;;;24.20;86.80;;;;;;5065025;28;20443;-73
2022/06/14 08:16:54;;;;;;;4.70;1.30;;;24.40;84.40;;;;;;5060011;28;20082;-72
2022/06/14 08:19:25;;;;;;;4.55;1.58;;;24.40;84.30;;;;;;5066462;28;20052;-72
2022/06/14 08:21:57;;;;;;;4.90;1.05;;;25.00;83.80;;;;;;5070372;28;20491;-72
2022/06/14 08:24:30;;;;;;;5.50;1.20;;;25.50;81.10;;;;;;5058309;28;20516;-72
2022/06/14 08:27:03;;;;;;;3.17;1.02;;;25.10;78.50;;;;;;5057286;28;20554;-72
2022/06/14 08:29:35;;;;;;;5.05;1.48;;;25.40;79.90;;;;;;5071042;28;20056;-72
2022/06/14 08:32:10;;;;;;;4.07;1.30;;;25.70;79.20;;;;;;5071382;28;21291;-72
2022/06/14 08:34:42;;;;;;;4.05;1.40;;;26.10;77.80;;;;;;5066161;28;20058;-74
2022/06/14 08:37:15;;;;;;;3.55;1.08;;;26.60;75.50;;;;;;5048576;28;20060;-73
2022/06/14 08:39:47;;;;;;;3.10;1.08;;;26.60;73.40;;;;;;5050432;28;20077;-73
2022/06/14 08:42:27;;;;;;;3.45;1.23;;;25.80;74.40;;;;;;5071525;28;20052;-71
2022/06/14 08:44:59;;;;;;;9.80;1.20;;;25.10;75.70;;;;;;5056545;28;20049;-72
2022/06/14 08:47:51;;;;;;;6.90;1.58;;;24.30;75.70;;;;;;5057964;28;20080;-72
2022/06/14 08:50:48;;;;;;;5.07;1.70;;;23.70;77.10;;;;;;5075168;28;20048;-73
2022/06/14 08:53:46;;;;;;;6.53;1.30;;;23.30;79.00;;;;;;5056231;28;20049;-72
2022/06/14 08:56:31;;;;;;;3.90;1.45;;;23.20;79.70;;;;;;5051188;28;20080;-72
2022/06/14 08:59:25;;;;;;;2.75;1.20;;;23.50;80.20;;;;;;5041724;28;20056;-73
2022/06/14 09:02:21;;;;;;;2.97;1.45;;;24.40;79.40;;;;;;5059723;28;20056;-73
2022/06/14 09:05:19;;;;;;;3.65;1.20;;;24.70;77.30;;;;;;5049621;28;20206;-73
2022/06/14 09:08:15;;;;;;;4.28;1.13;;;25.40;75.50;;;;;;5059640;28;20072;-74
2022/06/14 09:10:57;;;;;;;4.20;1.10;;;25.40;72.60;;;;;;5068307;28;20396;-72
2022/06/14 09:13:46;;;;;;;6.65;1.30;;;25.10;73.90;;;;;;5054772;28;20048;-72
2022/06/14 09:16:38;;;;;;;4.28;1.13;;;25.20;74.30;;;;;;5071147;28;20646;-72
2022/06/14 09:19:21;;;;;;;3.38;1.10;;;25.80;70.90;;;;;;5058085;28;20567;-73
2022/06/14 09:22:04;;;;;;;5.20;1.20;;;26.30;70.80;;;;;;5073812;28;20048;-73
2022/06/14 09:24:57;;;;;;;4.63;1.48;;;26.70;69.50;;;;;;5054392;28;20500;-71
2022/06/14 09:27:43;;;;;;;3.95;1.20;;;26.70;68.60;;;;;;5054088;28;20068;-72
2022/06/14 09:30:39;;;;;;;4.68;1.00;;;26.30;70.10;;;;;;5071474;28;20442;-72
2022/06/14 09:33:39;;;;;;;2.88;1.35;;;26.00;69.10;;;;;;5066571;28;20052;-72
2022/06/14 09:36:32;;;;;;;;;;;25.70;69.90;;;;;;5028806;28;20037;-73
2022/06/14 09:39:32;;;;;;;3.08;1.38;;;25.90;69.40;;;;;;5060659;28;19955;-73
2022/06/14 09:42:22;;;;;;;3.15;1.00;;;25.90;69.40;;;;;;5054318;28;20060;-72
2022/06/14 09:45:22;;;;;;;5.78;1.30;;;25.60;70.60;;;;;;5071117;28;20036;-72
2022/06/14 09:48:07;;;;;;;;;;;25.10;72.20;;;;;;5070043;28;20083;-72
2022/06/14 09:51:00;;;;;;;4.82;1.55;;;24.30;72.10;;;;;;5053808;28;19974;-70
2022/06/14 09:53:55;;;;;;;3.55;1.20;;;23.90;73.00;;;;;;5024254;28;20098;-72
2022/06/14 09:56:37;;;;;;;3.45;1.20;;;23.50;74.20;;;;;;5029191;28;20044;-72
2022/06/14 09:59:16;;;;;;;5.03;1.20;;;23.00;73.90;;;;;;5070262;28;20488;-72
2022/06/14 10:01:53;;;;;;;3.55;1.20;;;22.80;74.60;;;;;;5065091;28;20094;-70
2022/06/14 10:04:49;;;;;;;6.55;1.70;;;22.70;75.80;;;;;;5071676;28;20080;-71
2022/06/14 10:07:33;;;;;;;2.95;1.38;;;22.80;76.40;;;;;;5068763;28;20053;-72
2022/06/14 10:10:21;;;;;;;4.65;1.45;;;22.60;76.70;;;;;;5054723;28;20053;-72
2022/06/14 10:13:06;;;;;;;4.20;1.17;;;23.10;77.50;;;;;;5053021;28;20106;-71
2022/06/14 10:15:40;;;;;;;5.68;1.15;;;23.90;76.50;;;;;;5070959;28;20090;-72
2022/06/14 10:18:29;;;;;;;7.88;1.80;;;23.90;75.50;;;;;;5064830;28;20393;-72
2022/06/14 10:21:01;;;;;;;4.47;1.52;;;24.70;75.70;;;;;;5066300;28;20066;-72
2022/06/14 10:23:53;;;;;;;2.75;1.63;;;24.80;74.60;;;;;;5044647;28;20534;-71
2022/06/14 10:29:41;;;;;;;3.95;1.60;;;24.10;74.80;;;;;;5072456;28;20044;-73
2022/06/14 10:32:41;;;;;;;6.90;1.73;;;23.50;75.00;;;;;;5071139;28;20542;-72
2022/06/14 10:35:14;;;;;;;11.77;2.15;;;23.20;76.60;;;;;;5070494;28;20044;-71
2022/06/14 10:37:56;;;;;;;5.32;1.50;;;22.60;77.60;;;;;;5047599;28;20048;-71
2022/06/14 10:40:49;;;;;;;7.63;2.10;;;22.40;79.10;;;;;;5071267;28;20141;-72
2022/06/14 10:43:27;;;;;;;4.80;1.48;;;22.10;80.40;;;;;;5071338;28;20052;-72
2022/06/14 10:46:00;;;;;;;8.18;2.30;;;22.00;81.30;;;;;;5053025;28;20056;-72
2022/06/14 10:49:02;;;;;;;4.38;1.40;;;21.60;81.90;;;;;;5052075;28;20048;-71
2022/06/14 10:51:47;;;;;;;5.07;1.95;;;21.40;83.30;;;;;;5042607;28;20488;-71
2022/06/14 10:54:24;;;;;;;8.68;1.70;;;21.20;84.30;;;;;;5045050;28;20095;-72
2022/06/14 10:57:13;;;;;;;18.42;2.83;;;20.90;85.20;;;;;;5053102;28;20048;-73
2022/06/14 11:00:05;;;;;;;4.78;1.65;;;20.80;86.30;;;;;;5072135;28;20454;-72
2022/06/14 11:02:53;;;;;;;6.60;2.58;;;20.60;88.20;;;;;;5054631;28;20488;-71
2022/06/14 11:05:29;;;;;;;5.25;2.03;;;20.40;89.10;;;;;;5074510;28;20485;-72
2022/06/14 11:08:27;;;;;;;6.15;2.38;;;20.40;89.70;;;;;;5056607;28;20546;-72
2022/06/14 11:11:20;;;;;;;4.28;1.77;;;20.20;90.00;;;;;;5058503;28;20052;-72
2022/06/14 11:13:56;;;;;;;4.35;1.60;;;20.20;90.20;;;;;;5050218;28;20045;-71
2022/06/14 11:16:31;;;;;;;7.55;2.20;;;20.10;90.00;;;;;;5067471;28;20041;-72
2022/06/14 11:19:35;;;;;;;4.25;2.00;;;20.20;90.40;;;;;;5052698;28;20064;-73
2022/06/14 11:22:22;;;;;;;4.05;1.70;;;20.20;90.60;;;;;;5052526;28;20048;-72
2022/06/14 11:24:56;;;;;;;5.95;1.95;;;20.30;90.20;;;;;;5068909;28;20051;-72
2022/06/14 11:27:31;;;;;;;6.30;2.10;;;20.30;88.60;;;;;;5074406;28;20438;-73
2022/06/14 11:30:13;;;;;;;4.63;1.77;;;20.40;89.30;;;;;;5073146;28;20154;-73
2022/06/14 11:32:46;;;;;;;5.78;2.13;;;20.70;89.00;;;;;;5069683;28;20492;-72
2022/06/14 11:35:29;;;;;;;5.63;2.00;;;21.00;88.80;;;;;;5076337;28;20048;-72
2022/06/14 11:38:17;;;;;;;6.10;2.10;;;21.00;89.20;;;;;;5065782;28;20793;-72
2022/06/14 11:40:48;;;;;;;5.30;2.00;;;21.00;88.60;;;;;;5054635;28;20114;-72
2022/06/14 11:43:28;;;;;;;4.10;1.83;;;21.20;86.90;;;;;;5055286;28;20088;-73
2022/06/14 11:46:00;;;;;;;4.83;2.17;;;21.40;86.20;;;;;;5074009;28;20106;-71
2022/06/14 11:48:34;;;;;;;4.13;1.90;;;21.50;85.20;;;;;;5039234;28;20052;-72
2022/06/14 11:51:13;;;;;;;5.53;1.92;;;21.60;84.70;;;;;;5073865;28;20056;-72
2022/06/14 11:54:07;;;;;;;5.20;1.80;;;21.70;83.90;;;;;;5059343;28;20093;-71
2022/06/14 11:56:45;;;;;;;4.05;1.88;;;21.70;84.40;;;;;;5073972;28;20052;-72
2022/06/14 11:59:43;;;;;;;3.40;2.10;;;21.90;83.60;;;;;;5056368;28;20477;-72
2022/06/14 12:02:28;;;;;;;3.38;2.10;;;22.50;83.50;;;;;;5039395;28;20056;-72
2022/06/14 12:05:06;;;;;;;5.72;2.10;;;23.50;83.00;;;;;;5054101;28;20056;-73
2022/06/14 12:07:38;;;;;;;9.45;2.28;;;23.90;80.00;;;;;;5074238;28;20098;-71
2022/06/14 12:10:31;;;;;;;4.70;1.83;;;23.90;78.50;;;;;;5068376;28;20048;-72
2022/06/14 12:13:09;;;;;;;3.55;1.90;;;23.60;76.20;;;;;;5070601;28;20064;-73
2022/06/14 12:15:43;;;;;;;3.35;1.50;;;23.30;77.20;;;;;;5072181;28;20086;-72
2022/06/14 12:18:16;;;;;;;3.45;1.40;;;23.10;78.00;;;;;;5073513;28;20048;-72
2022/06/14 12:20:49;;;;;;;7.30;1.67;;;23.00;78.50;;;;;;5071428;28;20048;-72
2022/06/14 12:23:26;;;;;;;4.20;1.70;;;22.80;79.00;;;;;;5055528;28;20153;-72
2022/06/14 12:29:06;;;;;;;3.50;1.60;;;22.60;79.10;;;;;;5010699;28;20152;-73
2022/06/14 12:31:46;;;;;;;5.97;1.58;;;22.20;78.70;;;;;;5038228;28;20506;-72
2022/06/14 12:34:19;;;;;;;7.13;1.60;;;22.30;79.30;;;;;;5072240;28;20045;-72
2022/06/14 12:36:56;;;;;;;3.78;2.00;;;22.30;80.00;;;;;;5060309;28;20381;-72
2022/06/14 12:39:30;;;;;;;6.78;1.73;;;22.30;80.50;;;;;;5070803;28;20045;-73
2022/06/14 12:42:03;;;;;;;8.80;2.50;;;22.10;80.70;;;;;;5070013;28;20052;-72
2022/06/14 12:44:44;;;;;;;5.40;2.05;;;22.40;81.20;;;;;;5052709;28;20045;-72
2022/06/14 12:47:16;;;;;;;5.28;2.22;;;22.50;80.60;;;;;;5049971;28;20049;-73
2022/06/14 12:49:48;;;;;;;6.07;1.70;;;22.70;79.80;;;;;;5072721;28;20052;-72
2022/06/14 12:52:22;;;;;;;16.73;2.25;;;22.90;79.20;;;;;;5055248;28;20049;-72
2022/06/14 12:54:56;;;;;;;6.22;2.15;;;23.00;78.60;;;;;;5054085;28;20057;-72
2022/06/14 12:57:34;;;;;;;3.72;1.73;;;23.10;77.70;;;;;;5037884;28;20500;-72
2022/06/14 13:00:07;;;;;;;6.22;2.25;;;23.10;78.30;;;;;;5048531;28;20392;-72
2022/06/14 13:02:38;;;;;;;5.55;2.00;;;23.10;78.80;;;;;;5070420;28;20401;-71
2022/06/14 13:05:16;;;;;;;9.63;2.50;;;23.20;78.80;;;;;;5071985;28;20052;-72
2022/06/14 13:07:52;;;;;;;4.65;1.88;;;23.30;78.10;;;;;;5039828;28;20106;-71
2022/06/14 13:10:34;;;;;;;3.30;1.70;;;23.30;77.80;;;;;;5051883;28;20075;-72
2022/06/14 13:13:31;;;;;;;10.23;2.67;;;23.10;77.50;;;;;;5072199;28;20477;-72
2022/06/14 13:16:05;;;;;;;7.63;2.53;;;23.20;77.60;;;;;;5041653;28;20049;-73
2022/06/14 13:18:44;;;;;;;7.00;2.35;;;23.20;77.80;;;;;;5047738;28;20048;-71
2022/06/14 13:21:22;;;;;;;5.93;1.70;;;23.20;77.20;;;;;;5072267;28;20492;-72
2022/06/14 13:24:01;;;;;;;4.97;2.50;;;23.30;78.00;;;;;;5052031;28;20512;-72
2022/06/14 13:26:44;;;;;;;5.93;2.28;;;23.20;78.10;;;;;;5071425;28;20040;-71
2022/06/14 13:29:29;;;;;;;7.65;2.42;;;23.20;78.70;;;;;;5055090;28;20055;-71
2022/06/14 13:32:16;;;;;;;16.10;2.75;;;23.10;80.10;;;;;;5039571;28;20076;-71
2022/06/14 13:34:53;;;;;;;11.55;2.10;;;23.00;82.30;;;;;;5048852;28;20553;-72
2022/06/14 13:37:35;;;;;;;8.40;2.58;;;23.00;82.00;;;;;;5053306;28;20130;-72
2022/06/14 13:40:08;;;;;;;5.63;1.85;;;22.90;81.90;;;;;;5077449;28;20078;-72
2022/06/14 13:42:44;;;;;;;14.40;3.45;;;23.00;82.10;;;;;;5076513;28;20098;-71
2022/06/14 13:45:19;;;;;;;29.38;3.88;;;22.90;82.10;;;;;;5054203;28;20048;-72